Time;durP1;ratioP1;P1;durP2;ratioP2;P2;SDS_P1;SDS_P2;PMS_P1;PMS_P2;Temp;Humidity;BMP_temperature;BMP_pressure;BME280_temperature;BME280_humidity;BME280_pressure;Samples;Min_cycle;Max_cycle;Signal;HPM_P1;HPM_P2
2023/12/15 00:02:50;;;;;;;0.88;0.88;;;;;;;7.19;100.00;102670.28;10331932;28;20151;-71
2023/12/15 00:07:50;;;;;;;0.50;0.50;;;;;;;7.20;100.00;102687.28;10331183;28;20027;-71
2023/12/15 00:12:51;;;;;;;7.00;1.98;;;;;;;7.21;100.00;102689.88;10332576;28;20409;-71
2023/12/15 00:17:51;;;;;;;1.58;1.52;;;;;;;7.26;100.00;102708.31;10330328;28;20454;-71
2023/12/15 00:22:54;;;;;;;1.00;1.00;;;;;;;7.33;100.00;102719.44;10332554;28;20128;-71
2023/12/15 00:27:55;;;;;;;1.42;1.42;;;;;;;7.32;100.00;102728.50;10330730;28;20037;-71
2023/12/15 00:32:55;;;;;;;1.48;1.48;;;;;;;7.36;100.00;102721.84;10333061;28;20378;-71
2023/12/15 00:37:57;;;;;;;2.13;2.05;;;;;;;7.38;100.00;102725.28;10330988;28;20038;-71
2023/12/15 00:42:58;;;;;;;0.95;0.95;;;;;;;7.38;100.00;102709.13;10331167;28;20105;-71
2023/12/15 00:47:58;;;;;;;0.70;0.70;;;;;;;7.36;100.00;102711.09;10332100;28;20089;-71
2023/12/15 00:52:59;;;;;;;1.40;1.40;;;;;;;7.30;100.00;102712.44;10331622;28;20076;-72
2023/12/15 00:57:59;;;;;;;11.38;3.60;;;;;;;7.32;100.00;102723.13;10331293;28;20053;-71
2023/12/15 01:03:00;;;;;;;1.77;1.77;;;;;;;7.31;100.00;102738.44;10338088;28;20085;-71
2023/12/15 01:08:00;;;;;;;1.52;1.52;;;;;;;7.28;100.00;102743.25;10338580;28;20030;-71
2023/12/15 01:13:01;;;;;;;3.42;2.40;;;;;;;7.20;100.00;102725.84;10339214;28;20039;-71
2023/12/15 01:18:01;;;;;;;2.55;2.40;;;;;;;7.17;100.00;102736.91;10321777;28;20378;-72
2023/12/15 01:23:02;;;;;;;1.10;1.10;;;;;;;7.19;100.00;102729.56;10337563;28;20073;-71
2023/12/15 01:28:02;;;;;;;37.55;4.45;;;;;;;7.14;100.00;102739.84;10337292;28;20034;-71
2023/12/15 01:33:03;;;;;;;0.50;0.50;;;;;;;7.19;100.00;102751.09;10337456;28;20037;-71
2023/12/15 01:38:03;;;;;;;10.32;1.65;;;;;;;7.14;100.00;102745.25;10337729;28;20161;-71
2023/12/15 01:43:04;;;;;;;0.80;0.80;;;;;;;7.10;100.00;102749.19;10336651;28;20042;-71
2023/12/15 01:48:05;;;;;;;1.45;1.45;;;;;;;7.06;100.00;102781.91;10337328;28;20387;-72
2023/12/15 01:53:05;;;;;;;1.65;1.48;;;;;;;7.09;100.00;102781.66;10337430;28;20510;-72
2023/12/15 01:58:06;;;;;;;1.38;1.38;;;;;;;7.16;100.00;102799.88;10337415;28;20054;-71
2023/12/15 02:03:06;;;;;;;1.55;1.55;;;;;;;7.21;100.00;102815.63;10337436;28;20053;-71
2023/12/15 02:08:06;;;;;;;1.17;1.08;;;;;;;7.28;100.00;102830.31;10336735;28;20113;-71
2023/12/15 02:13:07;;;;;;;2.03;1.98;;;;;;;7.31;100.00;102840.84;10335108;28;20369;-71
2023/12/15 02:18:07;;;;;;;2.13;1.52;;;;;;;7.34;100.00;102845.09;10334482;28;20026;-71
2023/12/15 02:23:07;;;;;;;0.88;0.88;;;;;;;7.36;100.00;102851.22;10335812;28;20078;-71
2023/12/15 02:28:08;;;;;;;0.80;0.80;;;;;;;7.40;100.00;102861.63;10335804;28;20373;-71
2023/12/15 02:33:11;;;;;;;1.35;1.35;;;;;;;7.43;100.00;102852.41;10334664;28;20057;-72
2023/12/15 02:38:11;;;;;;;4.95;3.03;;;;;;;7.45;100.00;102858.53;10335793;28;20046;-72
2023/12/15 02:43:11;;;;;;;0.43;0.43;;;;;;;7.46;100.00;102860.25;10318441;28;20323;-73
2023/12/15 02:48:12;;;;;;;2.05;1.95;;;;;;;7.43;100.00;102871.28;10333123;28;20037;-73
2023/12/15 02:53:14;;;;;;;0.60;0.60;;;;;;;7.43;100.00;102882.06;10334150;28;20374;-72
2023/12/15 02:58:14;;;;;;;1.00;1.00;;;;;;;7.46;100.00;102884.50;10333444;28;20054;-72
2023/12/15 03:03:15;;;;;;;0.57;0.57;;;;;;;7.52;100.00;102886.69;10333623;28;20098;-72
2023/12/15 03:08:15;;;;;;;3.22;2.97;;;;;;;7.57;100.00;102894.41;10334730;28;20030;-72
2023/12/15 03:13:15;;;;;;;0.60;0.60;;;;;;;7.59;100.00;102895.13;10332501;28;20038;-72
2023/12/15 03:18:16;;;;;;;0.85;0.82;;;;;;;7.62;100.00;102906.50;10333975;28;20042;-72
2023/12/15 03:23:17;;;;;;;1.10;1.10;;;;;;;7.68;100.00;102908.69;10332348;28;20457;-72
2023/12/15 03:28:17;;;;;;;1.88;1.77;;;;;;;7.70;100.00;102913.97;10332736;28;20426;-72
2023/12/15 03:33:17;;;;;;;3.10;2.45;;;;;;;7.69;100.00;102915.81;10331974;28;20125;-72
2023/12/15 03:38:19;;;;;;;0.50;0.50;;;;;;;7.72;100.00;102909.28;10333263;28;20180;-72
2023/12/15 03:43:19;;;;;;;2.70;2.60;;;;;;;7.73;100.00;102920.94;10332882;28;20038;-72
2023/12/15 03:48:19;;;;;;;1.13;1.13;;;;;;;7.76;100.00;102936.88;10314943;28;20038;-73
2023/12/15 03:53:20;;;;;;;0.50;0.50;;;;;;;7.78;100.00;102930.34;10332397;28;20026;-73
2023/12/15 03:58:20;;;;;;;2.03;1.95;;;;;;;7.81;100.00;102942.72;10330349;28;20090;-72
2023/12/15 04:03:22;;;;;;;0.73;0.73;;;;;;;7.82;100.00;102950.69;10331883;28;20098;-72
2023/12/15 04:08:22;;;;;;;1.17;1.17;;;;;;;7.81;100.00;102950.81;10331651;28;20034;-72
2023/12/15 04:13:22;;;;;;;0.50;0.50;;;;;;;7.81;100.00;102954.34;10329735;28;20144;-72
2023/12/15 04:18:23;;;;;;;1.15;1.15;;;;;;;7.84;100.00;102967.56;10331121;28;20105;-72
2023/12/15 04:23:23;;;;;;;0.70;0.70;;;;;;;7.85;100.00;102974.72;10330846;28;20022;-72
2023/12/15 04:28:27;;;;;;;0.85;0.85;;;;;;;7.85;100.00;102961.22;10331288;28;20513;-72
2023/12/15 04:33:27;;;;;;;0.60;0.60;;;;;;;7.85;100.00;102973.84;10331117;28;20117;-71
2023/12/15 04:38:27;;;;;;;2.13;2.03;;;;;;;7.87;100.00;102977.25;10330094;28;20458;-72
2023/12/15 04:43:28;;;;;;;2.30;2.20;;;;;;;7.87;100.00;102978.13;10329413;28;20033;-72
2023/12/15 04:48:32;;;;;;;0.68;0.68;;;;;;;7.89;100.00;102991.50;10330354;28;20038;-72
2023/12/15 04:53:32;;;;;;;3.53;3.33;;;;;;;7.85;100.00;102990.91;10330343;28;20026;-72
2023/12/15 04:58:32;;;;;;;0.43;0.43;;;;;;;7.88;100.00;102997.84;10331142;28;20140;-72
2023/12/15 05:03:33;;;;;;;0.57;0.57;;;;;;;7.92;100.00;103008.28;10330371;28;20366;-72
2023/12/15 05:08:33;;;;;;;0.40;0.40;;;;;;;7.93;100.00;103011.81;10330269;28;20081;-73
2023/12/15 05:13:33;;;;;;;0.60;0.60;;;;;;;7.95;100.00;103011.72;10328682;28;20061;-73
2023/12/15 05:18:34;;;;;;;2.47;2.38;;;;;;;7.95;100.00;103030.59;10330092;28;20488;-73
2023/12/15 05:23:34;;;;;;;46.63;3.90;;;;;;;7.98;100.00;103041.13;10330460;28;20033;-73
2023/12/15 05:28:35;;;;;;;1.92;1.92;;;;;;;7.97;100.00;103040.25;10329082;28;20046;-72
2023/12/15 05:33:35;;;;;;;0.50;0.50;;;;;;;8.01;100.00;103040.84;10328995;28;20027;-72
2023/12/15 05:38:35;;;;;;;0.40;0.40;;;;;;;8.01;100.00;103030.94;10329477;28;20117;-72
2023/12/15 05:43:36;;;;;;;0.80;0.80;;;;;;;7.99;100.00;103030.19;10328704;28;20035;-72
2023/12/15 05:48:36;;;;;;;0.47;0.47;;;;;;;8.01;100.00;103035.44;10316949;28;20030;-72
2023/12/15 05:53:37;;;;;;;0.60;0.60;;;;;;;8.03;100.00;103036.19;10337165;28;20053;-73
2023/12/15 05:58:37;;;;;;;0.45;0.45;;;;;;;8.04;100.00;103054.97;10335235;28;20197;-73
2023/12/15 06:03:37;;;;;;;0.93;0.93;;;;;;;8.06;100.00;103058.38;10337695;28;20042;-71
2023/12/15 06:08:38;;;;;;;0.75;0.75;;;;;;;8.07;100.00;103065.50;10335980;28;20049;-72
2023/12/15 06:13:41;;;;;;;0.50;0.50;;;;;;;8.05;100.00;103089.03;10314495;28;20050;-75
2023/12/15 06:18:42;;;;;;;0.40;0.40;;;;;;;8.07;100.00;103073.59;10279845;28;20116;-72
2023/12/15 06:23:42;;;;;;;0.50;0.50;;;;;;;8.07;100.00;103087.09;10334983;28;20061;-72
2023/12/15 06:28:42;;;;;;;0.70;0.70;;;;;;;8.06;100.00;103079.97;10335143;28;20492;-72
2023/12/15 06:33:43;;;;;;;0.40;0.40;;;;;;;8.08;100.00;103087.94;10335791;28;20034;-71
2023/12/15 06:38:44;;;;;;;0.55;0.55;;;;;;;8.07;100.00;103105.97;10332985;28;20117;-72
2023/12/15 06:43:45;;;;;;;1.08;1.08;;;;;;;8.07;100.00;103115.88;10334879;28;20043;-72
2023/12/15 06:48:45;;;;;;;0.80;0.80;;;;;;;8.05;100.00;103137.63;10334844;28;20487;-72
2023/12/15 06:53:46;;;;;;;9.43;6.43;;;;;;;8.05;100.00;103145.72;10335012;28;20423;-72
2023/12/15 06:58:46;;;;;;;0.50;0.50;;;;;;;8.04;100.00;103133.22;10334709;28;20054;-71
2023/12/15 07:03:48;;;;;;;31.50;9.68;;;;;;;8.04;100.00;103156.63;10333021;28;20487;-72
2023/12/15 07:08:53;;;;;;;0.38;0.38;;;;;;;8.03;100.00;103149.50;10333260;28;20046;-72
2023/12/15 07:13:54;;;;;;;0.60;0.60;;;;;;;8.03;100.00;103138.72;10333157;28;20430;-72
2023/12/15 07:18:54;;;;;;;0.50;0.50;;;;;;;8.04;100.00;103148.53;10333690;28;20035;-72
2023/12/15 07:23:55;;;;;;;0.63;0.63;;;;;;;8.04;100.00;103146.72;10333088;28;20042;-72
2023/12/15 07:28:55;;;;;;;0.50;0.50;;;;;;;8.08;100.00;103160.81;10334994;28;20043;-72
2023/12/15 07:33:56;;;;;;;0.40;0.40;;;;;;;8.05;100.00;103164.59;10333141;28;20363;-72
2023/12/15 07:38:56;;;;;;;2.70;2.50;;;;;;;8.08;100.00;103168.91;10333184;28;20113;-72
2023/12/15 07:43:58;;;;;;;1.63;1.55;;;;;;;8.09;100.00;103170.59;10333045;28;20114;-72
2023/12/15 07:48:59;;;;;;;0.50;0.50;;;;;;;8.07;100.00;103176.13;10332099;28;20110;-72
2023/12/15 07:53:59;;;;;;;0.88;0.88;;;;;;;8.11;100.00;103196.47;10332324;28;20041;-72
2023/12/15 07:58:59;;;;;;;0.40;0.40;;;;;;;8.17;100.00;103216.72;10332450;28;20078;-72
2023/12/15 08:04:00;;;;;;;0.80;0.80;;;;;;;8.20;100.00;103216.47;10332458;28;20034;-72
2023/12/15 08:09:00;;;;;;;0.70;0.70;;;;;;;8.26;100.00;103231.28;10330684;28;20045;-72
2023/12/15 08:14:03;;;;;;;0.40;0.40;;;;;;;8.28;100.00;103232.03;10332023;28;20042;-72
2023/12/15 08:19:05;;;;;;;1.42;1.35;;;;;;;8.32;100.00;103241.59;10332483;28;20470;-71
2023/12/15 08:24:06;;;;;;;0.52;0.52;;;;;;;8.34;100.00;103240.50;10331289;28;20038;-72
2023/12/15 08:29:06;;;;;;;2.17;2.08;;;;;;;8.37;100.00;103252.88;10330404;28;20130;-72
2023/12/15 08:34:07;;;;;;;1.27;1.27;;;;;;;8.40;100.00;103265.31;10329514;28;20038;-72
2023/12/15 08:39:07;;;;;;;0.50;0.50;;;;;;;8.43;100.00;103271.31;10330896;28;20038;-72
2023/12/15 08:44:07;;;;;;;0.40;0.40;;;;;;;8.48;100.00;103281.72;10330845;28;20034;-72
2023/12/15 08:49:08;;;;;;;0.90;0.90;;;;;;;8.48;100.00;103285.28;10330947;28;20125;-72
2023/12/15 08:54:08;;;;;;;0.40;0.40;;;;;;;8.49;100.00;103302.38;10331035;28;20043;-72
2023/12/15 08:59:09;;;;;;;0.50;0.50;;;;;;;8.52;100.00;103300.28;10331396;28;20077;-72
2023/12/15 09:04:09;;;;;;;5.38;4.82;;;;;;;8.57;100.00;103300.75;10330770;28;20130;-72
2023/12/15 09:09:10;;;;;;;1.15;1.15;;;;;;;8.66;100.00;103319.88;10330684;28;20064;-72
2023/12/15 09:14:11;;;;;;;0.73;0.73;;;;;;;8.73;100.00;103332.75;10330632;28;20104;-72
2023/12/15 09:19:11;;;;;;;0.40;0.40;;;;;;;8.78;100.00;103335.09;10330916;28;20170;-72
2023/12/15 09:24:14;;;;;;;0.50;0.50;;;;;;;8.84;100.00;103356.22;10336110;28;20425;-72
2023/12/15 09:29:15;;;;;;;0.50;0.50;;;;;;;8.92;100.00;103360.97;10337834;28;20042;-71
2023/12/15 09:34:17;;;;;;;0.40;0.40;;;;;;;8.94;100.00;103367.97;10338697;28;20073;-72
2023/12/15 09:39:17;;;;;;;0.73;0.73;;;;;;;9.01;100.00;103382.69;10337523;28;20482;-72
2023/12/15 09:44:19;;;;;;;0.80;0.80;;;;;;;9.08;100.00;103381.19;10338856;28;20030;-72
2023/12/15 09:49:20;;;;;;;0.50;0.50;;;;;;;9.19;100.00;103398.34;10336464;28;20045;-71
2023/12/15 09:54:20;;;;;;;7.57;2.47;;;;;;;9.24;100.00;103415.06;10336470;28;20028;-71
2023/12/15 09:59:21;;;;;;;0.93;0.93;;;;;;;9.27;100.00;103434.59;10338207;28;20054;-71
2023/12/15 10:04:22;;;;;;;0.57;0.57;;;;;;;9.32;100.00;103448.63;10336566;28;20121;-71
2023/12/15 10:09:22;;;;;;;0.50;0.50;;;;;;;9.46;100.00;103433.94;10337102;28;20545;-71
2023/12/15 10:14:23;;;;;;;0.40;0.40;;;;;;;9.51;100.00;103438.97;10337947;28;20125;-71
2023/12/15 10:19:23;;;;;;;0.70;0.70;;;;;;;9.40;100.00;103456.06;10336743;28;20494;-72
2023/12/15 10:24:24;;;;;;;1.38;1.38;;;;;;;9.40;100.00;103464.19;10318931;28;20030;-72
2023/12/15 10:29:24;;;;;;;0.60;0.60;;;;;;;9.48;100.00;103474.38;10336546;28;20122;-71
2023/12/15 10:34:25;;;;;;;0.60;0.60;;;;;;;9.55;100.00;103468.34;10334771;28;20034;-72
2023/12/15 10:39:25;;;;;;;0.50;0.50;;;;;;;9.62;100.00;103478.66;10334789;28;20042;-71
2023/12/15 10:44:27;;;;;;;0.30;0.30;;;;;;;9.64;100.00;103484.78;10334193;28;20026;-72
2023/12/15 10:49:27;;;;;;;0.63;0.63;;;;;;;9.70;100.00;103500.50;10335551;28;20402;-71
2023/12/15 10:54:27;;;;;;;0.40;0.40;;;;;;;9.74;100.00;103505.53;10318476;28;20038;-71
2023/12/15 10:59:28;;;;;;;0.50;0.50;;;;;;;9.80;100.00;103511.44;10301971;28;20062;-72
2023/12/15 11:04:28;;;;;;;0.60;0.60;;;;;;;9.84;100.00;103502.91;10333762;28;20057;-72
2023/12/15 11:09:32;;;;;;;0.80;0.80;;;;;;;9.94;100.00;103484.06;10336644;28;20064;-71
2023/12/15 11:14:35;;;;;;;0.77;0.77;;;;;;;9.98;100.00;103478.22;10334661;28;20030;-71
2023/12/15 11:19:36;;;;;;;31.88;2.67;;;;;;;10.12;100.00;103465.41;10333501;28;20482;-71
2023/12/15 11:24:38;;;;;;;0.52;0.52;;;;;;;10.23;100.00;103443.66;10333251;28;20057;-71
2023/12/15 11:29:38;;;;;;;0.43;0.43;;;;;;;10.38;100.00;103430.66;10333846;28;20043;-71
2023/12/15 11:34:39;;;;;;;0.60;0.60;;;;;;;10.51;100.00;103436.72;10333579;28;20035;-72
2023/12/15 11:39:40;;;;;;;0.63;0.63;;;;;;;10.51;100.00;103465.66;10333508;28;20049;-72
2023/12/15 11:44:43;;;;;;;0.50;0.50;;;;;;;10.56;100.00;103494.09;10331530;28;20402;-72
2023/12/15 11:49:43;;;;;;;0.43;0.43;;;;;;;10.58;100.00;103504.78;10333834;28;20367;-72
2023/12/15 11:54:44;;;;;;;1.65;1.65;;;;;;;10.55;100.00;103513.16;10333414;28;20053;-72
2023/12/15 11:59:47;;;;;;;1.42;1.42;;;;;;;10.53;100.00;103504.28;10331799;28;20478;-72
2023/12/15 12:04:47;;;;;;;0.50;0.50;;;;;;;10.63;100.00;103502.53;10333120;28;20055;-72
2023/12/15 12:09:49;;;;;;;0.50;0.50;;;;;;;10.69;100.00;103499.28;10333494;28;20450;-72
2023/12/15 12:14:49;;;;;;;0.50;0.50;;;;;;;10.75;100.00;103503.28;10331381;28;20133;-72
2023/12/15 12:19:49;;;;;;;0.55;0.55;;;;;;;10.79;100.00;103499.34;10331925;28;20117;-72
2023/12/15 12:24:51;;;;;;;5.50;4.20;;;;;;;10.73;100.00;103500.72;10332359;28;20084;-72
2023/12/15 12:29:51;;;;;;;0.50;0.50;;;;;;;10.63;100.00;103494.41;10331357;28;20073;-72
2023/12/15 12:34:52;;;;;;;0.50;0.50;;;;;;;10.59;100.00;103512.78;10330102;28;20454;-72
2023/12/15 12:39:52;;;;;;;12.48;3.67;;;;;;;10.52;100.00;103498.03;10330462;28;20064;-72
2023/12/15 12:44:53;;;;;;;6.32;3.28;;;;;;;10.53;100.00;103501.59;10331289;28;20096;-71
2023/12/15 12:49:53;;;;;;;5.45;3.20;;;;;;;10.56;100.00;103494.09;10332641;28;20356;-71
2023/12/15 12:54:54;;;;;;;13.77;3.30;;;;;;;10.57;100.00;103503.06;10328903;28;20057;-72
2023/12/15 12:59:54;;;;;;;23.63;3.55;;;;;;;10.53;100.00;103515.13;10331547;28;20123;-72
2023/12/15 13:04:55;;;;;;;17.17;4.13;;;;;;;10.51;100.00;103530.69;10312834;28;20042;-72
2023/12/15 13:09:55;;;;;;;9.05;3.05;;;;;;;10.51;100.00;103525.28;10330114;28;20066;-72
2023/12/15 13:14:55;;;;;;;8.93;3.75;;;;;;;10.46;100.00;103517.53;10330774;28;20065;-71
2023/12/15 13:19:56;;;;;;;4.97;2.67;;;;;;;10.44;100.00;103525.78;10329843;28;20042;-72
2023/12/15 13:24:56;;;;;;;10.45;3.00;;;;;;;10.41;100.00;103536.91;10330737;28;20057;-73
2023/12/15 13:29:57;;;;;;;7.07;4.45;;;;;;;10.35;100.00;103540.13;10330372;28;20112;-72
2023/12/15 13:34:58;;;;;;;8.90;2.97;;;;;;;10.28;100.00;103552.47;10330731;28;20065;-72
2023/12/15 13:39:58;;;;;;;11.07;4.35;;;;;;;10.24;100.00;103537.44;10329319;28;20121;-72
2023/12/15 13:44:58;;;;;;;12.98;5.47;;;;;;;10.19;100.00;103556.78;10329975;28;20093;-72
2023/12/15 13:49:59;;;;;;;7.75;4.00;;;;;;;10.15;100.00;103554.47;10329262;28;20045;-72
2023/12/15 13:54:59;;;;;;;17.00;5.97;;;;;;;10.12;100.00;103569.13;10328307;28;20390;-72
2023/12/15 14:00:00;;;;;;;14.45;4.55;;;;;;;10.10;100.00;103578.38;10329666;28;20145;-72
2023/12/15 14:05:01;;;;;;;12.82;3.47;;;;;;;10.06;100.00;103582.34;10329045;28;20039;-72
2023/12/15 14:10:03;;;;;;;18.23;3.30;;;;;;;10.02;100.00;103566.34;10334538;28;20493;-71
2023/12/15 14:15:06;;;;;;;11.27;4.68;;;;;;;9.94;100.00;103563.41;10335685;28;20097;-72
2023/12/15 14:20:07;;;;;;;8.15;3.45;;;;;;;9.87;100.00;103562.19;10334754;28;20034;-72
2023/12/15 14:25:09;;;;;;;16.70;3.67;;;;;;;9.85;100.00;103564.16;10336082;28;20049;-72
2023/12/15 14:30:10;;;;;;;6.43;2.97;;;;;;;9.84;100.00;103557.03;10334457;28;20042;-71
2023/12/15 14:35:11;;;;;;;4.03;3.00;;;;;;;9.86;100.00;103570.44;10335246;28;20114;-72
2023/12/15 14:40:13;;;;;;;8.45;4.85;;;;;;;9.82;100.00;103568.97;10337157;28;20113;-72
2023/12/15 14:45:14;;;;;;;14.00;3.15;;;;;;;9.75;100.00;103566.78;10335415;28;20041;-72
2023/12/15 14:50:14;;;;;;;8.90;2.20;;;;;;;9.77;100.00;103558.53;10333881;28;20042;-72
2023/12/15 14:55:14;;;;;;;5.13;2.60;;;;;;;9.75;100.00;103574.91;10335373;28;20038;-72
2023/12/15 15:00:15;;;;;;;7.55;2.78;;;;;;;9.69;100.00;103574.53;10335162;28;20038;-72
2023/12/15 15:05:16;;;;;;;9.52;3.30;;;;;;;9.64;100.00;103596.56;10336018;28;20053;-72
2023/12/15 15:10:16;;;;;;;10.40;3.72;;;;;;;9.59;100.00;103589.81;10334925;28;20379;-72
2023/12/15 15:15:17;;;;;;;6.05;3.22;;;;;;;9.54;100.00;103582.94;10334350;28;20038;-72
2023/12/15 15:20:17;;;;;;;6.30;2.33;;;;;;;9.48;100.00;103580.72;10333510;28;20651;-72
2023/12/15 15:25:18;;;;;;;2.83;1.95;;;;;;;9.44;100.00;103603.59;10334485;28;20042;-72
2023/12/15 15:30:19;;;;;;;10.60;4.03;;;;;;;9.42;100.00;103615.53;10332735;28;20449;-72
2023/12/15 15:35:19;;;;;;;7.82;2.40;;;;;;;9.40;100.00;103626.47;10332257;28;20476;-72
2023/12/15 15:40:20;;;;;;;12.20;4.18;;;;;;;9.40;100.00;103629.16;10333726;28;20117;-72
2023/12/15 15:45:20;;;;;;;19.83;4.30;;;;;;;9.42;100.00;103646.13;10333269;28;20076;-72
2023/12/15 15:50:20;;;;;;;9.00;3.92;;;;;;;9.44;100.00;103640.59;10333019;28;20474;-72
2023/12/15 15:55:21;;;;;;;13.82;4.13;;;;;;;9.43;100.00;103634.31;10331577;28;20381;-72
2023/12/15 16:00:21;;;;;;;9.77;4.93;;;;;;;9.43;100.00;103628.91;10332287;28;20074;-71
2023/12/15 16:05:22;;;;;;;24.95;5.32;;;;;;;9.38;100.00;103619.44;10332314;28;20038;-72
2023/12/15 16:10:22;;;;;;;4.60;3.67;;;;;;;9.37;100.00;103617.72;10332010;28;20042;-71
2023/12/15 16:15:23;;;;;;;10.27;4.07;;;;;;;9.38;100.00;103623.03;10332961;28;20049;-72
2023/12/15 16:20:23;;;;;;;16.83;5.22;;;;;;;9.37;100.00;103636.66;10332375;28;20149;-72
2023/12/15 16:25:23;;;;;;;19.45;6.10;;;;;;;9.39;100.00;103622.03;10331425;28;20038;-72
2023/12/15 16:30:24;;;;;;;8.13;4.70;;;;;;;9.36;100.00;103622.28;10329991;28;20387;-71
2023/12/15 16:35:24;;;;;;;7.82;4.55;;;;;;;9.36;100.00;103635.81;10329707;28;20172;-72
2023/12/15 16:40:25;;;;;;;14.82;5.25;;;;;;;9.36;100.00;103646.63;10330963;28;20030;-71
2023/12/15 16:45:25;;;;;;;18.55;5.57;;;;;;;9.36;100.00;103660.16;10328887;28;20417;-72
2023/12/15 16:50:25;;;;;;;14.73;6.03;;;;;;;9.36;100.00;103670.97;10331323;28;20042;-71
2023/12/15 16:55:26;;;;;;;13.57;5.40;;;;;;;9.34;100.00;103688.28;10331238;28;20093;-72
2023/12/15 17:00:26;;;;;;;19.10;4.88;;;;;;;9.35;100.00;103692.72;10330791;28;20038;-72
2023/12/15 17:05:27;;;;;;;27.05;5.20;;;;;;;9.36;100.00;103680.94;10330912;28;20127;-72
2023/12/15 17:10:27;;;;;;;11.07;6.38;;;;;;;9.35;100.00;103684.59;10330310;28;20034;-72
2023/12/15 17:15:27;;;;;;;9.23;3.40;;;;;;;9.28;100.00;103681.50;10328669;28;20037;-73
2023/12/15 17:20:28;;;;;;;22.25;5.18;;;;;;;9.28;100.00;103693.22;10329387;28;20385;-72
2023/12/15 17:25:28;;;;;;;15.38;4.65;;;;;;;9.29;100.00;103691.38;10329753;28;20137;-72
2023/12/15 17:30:29;;;;;;;10.88;5.97;;;;;;;9.32;100.00;103696.53;10330894;28;20085;-72
2023/12/15 17:35:29;;;;;;;12.13;4.47;;;;;;;9.27;100.00;103705.00;10330267;28;20121;-72
2023/12/15 17:40:30;;;;;;;11.52;5.13;;;;;;;9.29;100.00;103710.31;10329583;28;20081;-72
2023/12/15 17:45:30;;;;;;;13.68;5.03;;;;;;;9.26;100.00;103695.16;10336130;28;20038;-72
2023/12/15 17:50:31;;;;;;;12.70;3.22;;;;;;;9.25;100.00;103698.88;10338350;28;20030;-72
2023/12/15 17:55:32;;;;;;;15.57;4.85;;;;;;;9.24;100.00;103701.69;10336383;28;20104;-72
2023/12/15 18:00:33;;;;;;;13.18;6.00;;;;;;;9.20;100.00;103708.31;10338200;28;20069;-72
2023/12/15 18:05:33;;;;;;;15.38;4.65;;;;;;;9.20;100.00;103719.13;10335978;28;20168;-72
2023/12/15 18:10:34;;;;;;;7.60;3.28;;;;;;;9.19;100.00;103712.88;10337487;28;20041;-72
2023/12/15 18:15:34;;;;;;;9.05;4.07;;;;;;;9.19;100.00;103711.97;10337109;28;20168;-72
2023/12/15 18:20:35;;;;;;;9.70;4.47;;;;;;;9.18;100.00;103719.22;10336670;28;20489;-72
2023/12/15 18:25:36;;;;;;;21.95;5.32;;;;;;;9.15;100.00;103722.16;10337449;28;20038;-73
2023/12/15 18:30:37;;;;;;;14.45;6.05;;;;;;;9.16;100.00;103731.16;10338085;28;20030;-72
2023/12/15 18:35:37;;;;;;;12.73;4.88;;;;;;;9.16;100.00;103740.13;10337005;28;20106;-72
2023/12/15 18:40:38;;;;;;;14.52;4.72;;;;;;;9.15;100.00;103737.53;10336678;28;20026;-71
2023/12/15 18:45:41;;;;;;;17.77;4.78;;;;;;;9.16;100.00;103742.84;10336736;28;20050;-72
2023/12/15 18:50:42;;;;;;;15.45;6.05;;;;;;;9.15;100.00;103741.09;10336844;28;20381;-73
2023/12/15 18:55:42;;;;;;;11.75;5.20;;;;;;;9.14;100.00;103747.50;10332948;28;20046;-72
2023/12/15 19:00:44;;;;;;;14.02;5.80;;;;;;;9.12;100.00;103740.47;10335036;28;20050;-72
2023/12/15 19:05:44;;;;;;;13.52;5.72;;;;;;;9.08;100.00;103727.19;10336756;28;20069;-72
2023/12/15 19:10:45;;;;;;;13.55;4.57;;;;;;;9.05;100.00;103723.88;10333948;28;20037;-72
2023/12/15 19:15:46;;;;;;;13.77;5.78;;;;;;;9.01;100.00;103739.47;10334787;28;20122;-72
2023/12/15 19:20:46;;;;;;;10.75;4.50;;;;;;;9.02;100.00;103754.69;10318578;28;20026;-72
2023/12/15 19:25:47;;;;;;;8.25;4.80;;;;;;;9.03;100.00;103756.44;10333039;28;20058;-72
2023/12/15 19:30:48;;;;;;;24.48;6.95;;;;;;;9.04;100.00;103755.44;10333169;28;20063;-72
2023/12/15 19:35:48;;;;;;;11.43;7.03;;;;;;;9.03;100.00;103760.97;10333948;28;20038;-72
2023/12/15 19:40:49;;;;;;;14.98;8.25;;;;;;;9.03;100.00;103778.06;10332416;28;20034;-74
2023/12/15 19:45:49;;;;;;;18.70;6.03;;;;;;;8.99;100.00;103789.22;10332766;28;20430;-73
2023/12/15 19:50:50;;;;;;;13.52;5.68;;;;;;;9.03;100.00;103796.09;10333901;28;20035;-74
2023/12/15 19:55:50;;;;;;;10.82;5.20;;;;;;;9.00;100.00;103789.09;10333257;28;20428;-74
2023/12/15 20:00:51;;;;;;;11.07;5.03;;;;;;;9.00;100.00;103785.53;10334162;28;20069;-74
2023/12/15 20:05:51;;;;;;;20.27;5.60;;;;;;;8.99;100.00;103792.75;10332790;28;20097;-73
2023/12/15 20:10:51;;;;;;;13.73;6.00;;;;;;;9.01;100.00;103798.94;10333986;28;20069;-73
2023/12/15 20:15:52;;;;;;;11.80;5.40;;;;;;;9.03;100.00;103788.88;10332123;28;20427;-73
2023/12/15 20:20:52;;;;;;;6.63;3.17;;;;;;;9.02;100.00;103781.72;10330557;28;20030;-74
2023/12/15 20:25:53;;;;;;;13.93;4.30;;;;;;;9.01;100.00;103784.56;10330657;28;20084;-74
2023/12/15 20:30:53;;;;;;;10.07;3.83;;;;;;;9.01;100.00;103800.78;10333179;28;20122;-74
2023/12/15 20:35:53;;;;;;;11.75;3.08;;;;;;;9.03;100.00;103810.50;10332821;28;20057;-74
2023/12/15 20:40:55;;;;;;;10.55;3.65;;;;;;;9.07;100.00;103811.13;10331506;28;20086;-73
2023/12/15 20:45:56;;;;;;;8.70;4.57;;;;;;;9.07;100.00;103821.94;10332323;28;20069;-73
2023/12/15 20:50:56;;;;;;;5.78;3.88;;;;;;;9.08;100.00;103834.47;10332206;28;20117;-74
2023/12/15 20:55:56;;;;;;;11.35;2.75;;;;;;;9.07;100.00;103822.78;10330099;28;20061;-73
2023/12/15 21:00:57;;;;;;;7.45;4.40;;;;;;;9.08;100.00;103819.09;10332007;28;20035;-74
2023/12/15 21:05:57;;;;;;;11.20;2.55;;;;;;;9.06;100.00;103826.50;10332283;28;20041;-74
2023/12/15 21:10:58;;;;;;;13.30;3.50;;;;;;;9.08;100.00;103843.44;10329588;28;20449;-74
2023/12/15 21:15:58;;;;;;;8.18;4.18;;;;;;;9.07;100.00;103836.31;10330702;28;20043;-73
2023/12/15 21:20:59;;;;;;;14.30;4.57;;;;;;;9.07;100.00;103821.94;10338862;28;20128;-75
2023/12/15 21:25:59;;;;;;;12.75;4.30;;;;;;;9.05;100.00;103823.88;10340171;28;20030;-74
2023/12/15 21:30:59;;;;;;;16.85;4.80;;;;;;;9.04;100.00;103817.63;10339704;28;20037;-74
2023/12/15 21:36:00;;;;;;;7.03;4.05;;;;;;;8.96;100.00;103809.22;10339225;28;20042;-74
2023/12/15 21:41:00;;;;;;;14.18;3.53;;;;;;;8.91;100.00;103789.81;10336899;28;20030;-74
2023/12/15 21:46:01;;;;;;;15.20;3.90;;;;;;;8.92;100.00;103783.41;10338132;28;20080;-73
2023/12/15 21:51:01;;;;;;;9.35;3.50;;;;;;;8.92;100.00;103785.25;10337121;28;20474;-73
2023/12/15 21:56:05;;;;;;;8.65;3.08;;;;;;;9.00;100.00;103796.34;10336620;28;20149;-73
2023/12/15 22:01:05;;;;;;;7.20;5.18;;;;;;;9.03;100.00;103805.09;10338849;28;20094;-74
2023/12/15 22:06:06;;;;;;;7.18;3.60;;;;;;;9.04;100.00;103824.88;10336709;28;20046;-74
2023/12/15 22:11:07;;;;;;;16.05;4.72;;;;;;;9.05;100.00;103821.19;10336392;28;20093;-74
2023/12/15 22:16:10;;;;;;;12.75;3.90;;;;;;;9.00;100.00;103818.84;10338161;28;20034;-74
2023/12/15 22:21:11;;;;;;;11.25;5.07;;;;;;;8.96;100.00;103814.63;10337190;28;20053;-73
2023/12/15 22:26:12;;;;;;;4.50;2.72;;;;;;;9.02;100.00;103819.56;10335660;28;20038;-73
2023/12/15 22:31:12;;;;;;;19.73;3.25;;;;;;;9.02;100.00;103821.41;10337433;28;20066;-73
2023/12/15 22:36:20;;;;;;;6.50;4.13;;;;;;;9.01;100.00;103827.81;10336823;28;20066;-73
2023/12/15 22:41:21;;;;;;;15.40;3.60;;;;;;;8.97;100.00;103818.22;10337605;28;20034;-73
2023/12/15 22:46:22;;;;;;;17.98;4.80;;;;;;;8.95;100.00;103822.84;10335843;28;20113;-72
2023/12/15 22:51:22;;;;;;;11.50;3.17;;;;;;;8.91;100.00;103824.94;10336139;28;20117;-72
2023/12/15 22:56:23;;;;;;;12.18;3.65;;;;;;;8.91;100.00;103805.16;10338502;28;20498;-73